Time;durP1;ratioP1;P1;durP2;ratioP2;P2;SDS_P1;SDS_P2;PMS_P1;PMS_P2;Temp;Humidity;BMP_temperature;BMP_pressure;BME280_temperature;BME280_humidity;BME280_pressure;Samples;Min_cycle;Max_cycle;Signal;HPM_P1;HPM_P2
2023/10/16 00:00:29;;;;;;;3.67;1.20;;;;;;;;;;5284123;28;20033;-74
2023/10/16 00:02:59;;;;;;;4.95;1.30;;;;;;;;;;5283122;28;20040;-74
2023/10/16 00:05:38;;;;;;;3.53;1.48;;;;;;;;;;5283814;28;20020;-74
2023/10/16 00:08:09;;;;;;;5.60;1.95;;;;;;;;;;5283796;28;20064;-74
2023/10/16 00:10:40;;;;;;;3.42;1.23;;;;;;;;;;5282748;28;20020;-75
2023/10/16 00:13:11;;;;;;;2.42;1.30;;;;;;;;;;5283793;28;20466;-74
2023/10/16 00:15:49;;;;;;;4.53;1.33;;;;;;;;;;5283554;28;20082;-74
2023/10/16 00:18:23;;;;;;;4.55;1.25;;;;;;;;;;5283155;28;20043;-74
2023/10/16 00:20:55;;;;;;;2.17;1.33;;;;;;;;;;5283605;28;20015;-74
2023/10/16 00:23:30;;;;;;;7.03;1.67;;;;;;;;;;5283410;28;20038;-74
2023/10/16 00:26:01;;;;;;;4.28;1.15;;;;;;;;;;5283260;28;20062;-75
2023/10/16 00:28:33;;;;;;;4.43;1.38;;;;;;;;;;5283590;28;20020;-75
2023/10/16 00:31:04;;;;;;;5.50;1.38;;;;;;;;;;5282930;28;20023;-75
2023/10/16 00:33:36;;;;;;;3.38;1.17;;;;;;;;;;5283425;28;20078;-75
2023/10/16 00:36:07;;;;;;;4.82;1.48;;;;;;;;;;5283240;28;20059;-75
2023/10/16 00:38:38;;;;;;;3.15;1.42;;;;;;;;;;5282260;28;20069;-75
2023/10/16 00:41:17;;;;;;;4.03;1.60;;;;;;;;;;5283276;28;20410;-74
2023/10/16 00:43:48;;;;;;;5.10;1.70;;;;;;;;;;5282933;28;20104;-75
2023/10/16 00:46:36;;;;;;;5.32;1.50;;;;;;;;;;5282421;28;20111;-74
2023/10/16 00:49:11;;;;;;;3.40;1.58;;;;;;;;;;5282955;28;20036;-75
2023/10/16 00:51:42;;;;;;;2.95;1.33;;;;;;;;;;5282296;28;20027;-75
2023/10/16 00:54:18;;;;;;;5.80;1.88;;;;;;;;;;5282901;28;20013;-74
2023/10/16 00:56:50;;;;;;;4.75;1.92;;;;;;;;;;5282600;28;20085;-74
2023/10/16 00:59:23;;;;;;;2.72;1.05;;;;;;;;;;5282485;28;20170;-74
2023/10/16 01:04:47;;;;;;;3.40;1.95;;;;;;;;;;5282584;28;20386;-74
2023/10/16 01:07:19;;;;;;;4.50;1.60;;;;;;;;;;5282076;28;20414;-75
2023/10/16 01:09:50;;;;;;;4.55;1.67;;;;;;;;;;5281349;28;20123;-75
2023/10/16 01:12:22;;;;;;;4.18;1.60;;;;;;;;;;5282965;28;20092;-75
2023/10/16 01:14:53;;;;;;;4.10;1.50;;;;;;;;;;5281719;28;20020;-74
2023/10/16 01:17:32;;;;;;;6.18;1.83;;;;;;;;;;5282526;28;20104;-75
2023/10/16 01:20:03;;;;;;;5.60;2.25;;;;;;;;;;5281928;28;20032;-75
2023/10/16 01:22:35;;;;;;;5.13;1.40;;;;;;;;;;5282630;28;20459;-75
2023/10/16 01:25:08;;;;;;;3.55;1.67;;;;;;;;;;5282298;28;20104;-75
2023/10/16 01:27:40;;;;;;;4.00;1.75;;;;;;;;;;5281627;28;20387;-75
2023/10/16 01:30:11;;;;;;;6.00;1.70;;;;;;;;;;5282268;28;20017;-74
2023/10/16 01:32:42;;;;;;;5.53;1.58;;;;;;;;;;5282301;28;20530;-75
2023/10/16 01:35:13;;;;;;;2.78;1.63;;;;;;;;;;5281371;28;20025;-75
2023/10/16 01:37:46;;;;;;;6.13;2.30;;;;;;;;;;5282092;28;20490;-74
2023/10/16 01:42:53;;;;;;;3.26;1.68;;;;;;;;;;5280870;28;20620;-75
2023/10/16 01:45:27;;;;;;;4.07;2.03;;;;;;;;;;5282276;28;20032;-75
2023/10/16 01:48:04;;;;;;;4.25;1.70;;;;;;;;;;5281170;28;20071;-75
2023/10/16 01:50:38;;;;;;;5.28;1.77;;;;;;;;;;5282108;28;20021;-75
2023/10/16 01:53:14;;;;;;;6.68;2.65;;;;;;;;;;5281988;28;20040;-75
2023/10/16 01:55:51;;;;;;;3.13;2.10;;;;;;;;;;5281179;28;20502;-76
2023/10/16 01:58:23;;;;;;;8.23;2.50;;;;;;;;;;5282479;28;20027;-75
2023/10/16 02:00:54;;;;;;;6.47;2.15;;;;;;;;;;5282043;28;20103;-76
2023/10/16 02:03:26;;;;;;;4.07;2.22;;;;;;;;;;5281238;28;20077;-75
2023/10/16 02:05:57;;;;;;;3.35;1.65;;;;;;;;;;5282106;28;20074;-76
2023/10/16 02:08:29;;;;;;;4.88;2.00;;;;;;;;;;5281902;28;20044;-75
2023/10/16 02:11:02;;;;;;;3.90;2.25;;;;;;;;;;5281201;28;20016;-74
2023/10/16 02:13:35;;;;;;;3.92;2.42;;;;;;;;;;5281885;28;20023;-74
2023/10/16 02:16:10;;;;;;;5.70;2.30;;;;;;;;;;5280995;28;20024;-74
2023/10/16 02:18:41;;;;;;;3.97;2.10;;;;;;;;;;5282047;28;20401;-74
2023/10/16 02:21:13;;;;;;;3.60;1.88;;;;;;;;;;5284886;28;20020;-74
2023/10/16 02:23:46;;;;;;;2.60;1.65;;;;;;;;;;5283896;28;20016;-74
2023/10/16 02:26:18;;;;;;;4.40;1.98;;;;;;;;;;5286015;28;20020;-75
2023/10/16 02:28:54;;;;;;;7.55;2.00;;;;;;;;;;5284931;28;20032;-74
2023/10/16 02:31:25;;;;;;;4.47;2.33;;;;;;;;;;5285123;28;20015;-75
2023/10/16 02:34:09;;;;;;;3.85;2.10;;;;;;;;;;5285795;28;20025;-76
2023/10/16 02:36:42;;;;;;;4.30;1.60;;;;;;;;;;5285701;28;20383;-75
2023/10/16 02:39:27;;;;;;;3.80;2.10;;;;;;;;;;5284838;28;20016;-75
2023/10/16 02:41:59;;;;;;;5.28;2.50;;;;;;;;;;5285678;28;20034;-75
2023/10/16 02:44:30;;;;;;;6.78;2.75;;;;;;;;;;5284845;28;20819;-75
2023/10/16 02:47:05;;;;;;;3.20;1.60;;;;;;;;;;5285123;28;20048;-75
2023/10/16 02:49:36;;;;;;;5.32;2.50;;;;;;;;;;5285320;28;20059;-75
2023/10/16 02:52:07;;;;;;;4.60;2.33;;;;;;;;;;5284787;28;20423;-76
2023/10/16 02:54:38;;;;;;;7.15;2.08;;;;;;;;;;5285355;28;20024;-76
2023/10/16 02:57:10;;;;;;;4.60;2.20;;;;;;;;;;5285165;28;20027;-76
2023/10/16 02:59:45;;;;;;;4.63;2.35;;;;;;;;;;5284334;28;20024;-76
2023/10/16 03:02:22;;;;;;;5.10;2.50;;;;;;;;;;5285439;28;20025;-76
2023/10/16 03:05:02;;;;;;;4.20;2.55;;;;;;;;;;5285000;28;20455;-76
2023/10/16 03:07:34;;;;;;;5.25;2.50;;;;;;;;;;5284371;28;20024;-76
2023/10/16 03:10:08;;;;;;;5.68;2.33;;;;;;;;;;5284877;28;20123;-76
2023/10/16 03:12:42;;;;;;;3.95;2.63;;;;;;;;;;5284016;28;20462;-76
2023/10/16 03:15:31;;;;;;;6.68;2.83;;;;;;;;;;5284986;28;20418;-76
2023/10/16 03:18:04;;;;;;;4.82;2.33;;;;;;;;;;5284930;28;20024;-76
2023/10/16 03:20:35;;;;;;;4.80;2.38;;;;;;;;;;5284048;28;20359;-76
2023/10/16 03:23:07;;;;;;;5.40;2.70;;;;;;;;;;5284699;28;20028;-76
2023/10/16 03:28:13;;;;;;;5.03;2.70;;;;;;;;;;5283938;28;20462;-76
2023/10/16 03:30:44;;;;;;;4.60;2.97;;;;;;;;;;5284524;28;20024;-76
2023/10/16 03:33:15;;;;;;;5.25;2.83;;;;;;;;;;5283921;28;20051;-76
2023/10/16 03:35:49;;;;;;;5.10;2.75;;;;;;;;;;5283667;28;20021;-76
2023/10/16 03:38:24;;;;;;;4.78;2.95;;;;;;;;;;5284778;28;20370;-76
2023/10/16 03:40:56;;;;;;;4.10;2.42;;;;;;;;;;5283787;28;20025;-76
2023/10/16 03:43:28;;;;;;;3.78;2.30;;;;;;;;;;5284261;28;20024;-74
2023/10/16 03:46:02;;;;;;;4.47;2.70;;;;;;;;;;5284096;28;20032;-76
2023/10/16 03:48:35;;;;;;;4.70;3.05;;;;;;;;;;5283676;28;20432;-76
2023/10/16 03:51:06;;;;;;;4.63;2.92;;;;;;;;;;5284129;28;20048;-74
2023/10/16 03:53:38;;;;;;;4.57;2.53;;;;;;;;;;5283973;28;20426;-74
2023/10/16 03:56:10;;;;;;;5.88;2.58;;;;;;;;;;5283311;28;20024;-74
2023/10/16 03:58:41;;;;;;;5.15;2.65;;;;;;;;;;5283924;28;20017;-74
2023/10/16 04:01:12;;;;;;;3.78;2.28;;;;;;;;;;5284106;28;20024;-75
2023/10/16 04:03:47;;;;;;;5.18;2.78;;;;;;;;;;5283180;28;20016;-74
2023/10/16 04:06:21;;;;;;;4.68;3.05;;;;;;;;;;5284068;28;20020;-74
2023/10/16 04:08:53;;;;;;;3.70;2.63;;;;;;;;;;5282579;28;20032;-74
2023/10/16 04:11:24;;;;;;;4.70;3.05;;;;;;;;;;5283658;28;20058;-74
2023/10/16 04:13:56;;;;;;;5.78;2.65;;;;;;;;;;5283778;28;20527;-74
2023/10/16 04:16:54;;;;;;;4.88;2.53;;;;;;;;;;5283041;28;20032;-75
2023/10/16 04:22:09;;;;;;;4.50;2.82;;;;;;;;;;5283720;28;20390;-75
2023/10/16 04:24:44;;;;;;;4.90;2.92;;;;;;;;;;5282793;28;20090;-75
2023/10/16 04:32:40;;;;;;;5.43;2.95;;;;;;;;;;5283390;28;20027;-75
2023/10/16 04:35:51;;;;;;;6.55;3.17;;;;;;;;;;5283089;28;20522;-75
2023/10/16 04:38:53;;;;;;;5.65;2.65;;;;;;;;;;5282434;28;20485;-75
2023/10/16 04:44:23;;;;;;;7.05;2.85;;;;;;;;;;5282362;28;20024;-76
2023/10/16 04:47:00;;;;;;;4.97;3.13;;;;;;;;;;5282798;28;20110;-75
2023/10/16 04:49:36;;;;;;;5.07;2.72;;;;;;;;;;5282722;28;20024;-75
2023/10/16 04:52:14;;;;;;;7.32;3.35;;;;;;;;;;5281984;28;20069;-75
2023/10/16 04:54:58;;;;;;;6.25;2.90;;;;;;;;;;5282438;28;20020;-75
2023/10/16 04:57:47;;;;;;;4.47;2.95;;;;;;;;;;5282809;28;20024;-75
2023/10/16 05:03:24;;;;;;;4.57;2.70;;;;;;;;;;5283028;28;20024;-75
2023/10/16 05:11:27;;;;;;;4.97;2.92;;;;;;;;;;5281966;28;20112;-76
2023/10/16 05:17:21;;;;;;;5.75;3.15;;;;;;;;;;5280089;28;20161;-76
2023/10/16 06:14:09;;;;;;;5.72;3.20;;;;;;;;;;5282643;28;20029;-75
2023/10/16 06:14:12;;;;;;;4.00;2.88;;;;;;;;;;5281737;28;20028;-74
2023/10/16 06:16:45;;;;;;;6.47;3.35;;;;;;;;;;5280849;28;20900;-75
2023/10/16 06:19:19;;;;;;;4.43;2.97;;;;;;;;;;5281629;28;20032;-76
2023/10/16 06:21:51;;;;;;;5.88;3.72;;;;;;;;;;5281104;28;20511;-75
2023/10/16 06:24:32;;;;;;;4.40;3.42;;;;;;;;;;5280950;28;20104;-75
2023/10/16 06:27:08;;;;;;;5.03;3.35;;;;;;;;;;5281298;28;20179;-75
2023/10/16 06:29:41;;;;;;;6.45;3.65;;;;;;;;;;5280544;28;20094;-73
2023/10/16 06:32:18;;;;;;;3.78;2.72;;;;;;;;;;5281385;28;20107;-75
2023/10/16 06:34:51;;;;;;;7.30;3.35;;;;;;;;;;5281096;28;20028;-74
2023/10/16 06:37:23;;;;;;;6.30;3.50;;;;;;;;;;5280706;28;20024;-77
2023/10/16 06:39:58;;;;;;;7.07;3.67;;;;;;;;;;5281200;28;20493;-76
2023/10/16 06:42:30;;;;;;;6.57;3.35;;;;;;;;;;5281328;28;20051;-76
2023/10/16 06:45:07;;;;;;;6.53;3.25;;;;;;;;;;5280119;28;20056;-76
2023/10/16 06:47:47;;;;;;;8.60;3.30;;;;;;;;;;5280790;28;20052;-76
2023/10/16 06:52:58;;;;;;;5.05;3.30;;;;;;;;;;5281352;28;20028;-74
2023/10/16 06:55:30;;;;;;;7.25;3.65;;;;;;;;;;5281090;28;20028;-76
2023/10/16 06:58:01;;;;;;;5.50;3.42;;;;;;;;;;5280067;28;20020;-76
2023/10/16 07:00:32;;;;;;;3.30;2.53;;;;;;;;;;5281087;28;20028;-76
2023/10/16 07:03:09;;;;;;;8.20;3.60;;;;;;;;;;5281207;28;20360;-77
2023/10/16 07:05:43;;;;;;;5.32;3.15;;;;;;;;;;5280459;28;20390;-77
2023/10/16 07:08:19;;;;;;;4.85;3.03;;;;;;;;;;5283973;28;20024;-76
2023/10/16 07:10:52;;;;;;;5.95;3.45;;;;;;;;;;5284387;28;20062;-76
2023/10/16 07:13:26;;;;;;;5.45;3.33;;;;;;;;;;5284192;28;20079;-76
2023/10/16 07:16:02;;;;;;;8.05;3.75;;;;;;;;;;5284638;28;20020;-76
2023/10/16 07:18:33;;;;;;;5.97;3.13;;;;;;;;;;5283866;28;20016;-76
2023/10/16 07:23:36;;;;;;;7.42;4.12;;;;;;;;;;5284642;28;20029;-76
2023/10/16 07:26:11;;;;;;;6.40;3.20;;;;;;;;;;5283810;28;20502;-75
2023/10/16 07:28:48;;;;;;;3.75;2.90;;;;;;;;;;5284331;28;20494;-75
2023/10/16 07:31:19;;;;;;;7.18;3.72;;;;;;;;;;5284937;28;20374;-75
2023/10/16 07:33:53;;;;;;;8.30;4.00;;;;;;;;;;5283459;28;20024;-75
2023/10/16 07:36:24;;;;;;;5.00;3.33;;;;;;;;;;5284506;28;20008;-75
2023/10/16 07:38:56;;;;;;;5.22;3.40;;;;;;;;;;5284268;28;20032;-75
2023/10/16 07:41:27;;;;;;;5.07;3.85;;;;;;;;;;5283573;28;20020;-75
2023/10/16 07:44:04;;;;;;;6.40;3.28;;;;;;;;;;5284361;28;20141;-75
2023/10/16 07:46:38;;;;;;;5.25;3.30;;;;;;;;;;5283521;28;20116;-75
2023/10/16 07:49:09;;;;;;;7.10;4.15;;;;;;;;;;5283954;28;20028;-75
2023/10/16 07:51:45;;;;;;;5.40;3.80;;;;;;;;;;5284105;28;20021;-75
2023/10/16 07:54:17;;;;;;;7.32;3.72;;;;;;;;;;5282268;28;20536;-75
2023/10/16 07:56:51;;;;;;;6.95;3.50;;;;;;;;;;5283842;28;20044;-75
2023/10/16 07:59:22;;;;;;;4.60;3.65;;;;;;;;;;5284169;28;20017;-75
2023/10/16 08:01:59;;;;;;;6.28;3.95;;;;;;;;;;5282752;28;20467;-75
2023/10/16 08:04:35;;;;;;;3.78;2.97;;;;;;;;;;5284068;28;20100;-76
2023/10/16 08:07:16;;;;;;;5.30;3.40;;;;;;;;;;5283821;28;20028;-76
2023/10/16 08:09:57;;;;;;;6.55;3.47;;;;;;;;;;5282873;28;20033;-76
2023/10/16 08:15:09;;;;;;;9.95;3.67;;;;;;;;;;5283171;28;20112;-75
2023/10/16 08:17:43;;;;;;;5.50;3.35;;;;;;;;;;5283094;28;20068;-77
2023/10/16 08:20:18;;;;;;;6.25;3.95;;;;;;;;;;5283294;28;20082;-79
2023/10/16 08:22:50;;;;;;;5.07;3.38;;;;;;;;;;5282307;28;20024;-78
2023/10/16 08:25:30;;;;;;;5.60;3.05;;;;;;;;;;5283885;28;20028;-76
2023/10/16 08:28:18;;;;;;;4.60;3.13;;;;;;;;;;5283147;28;20032;-77
2023/10/16 08:30:50;;;;;;;5.38;3.30;;;;;;;;;;5282314;28;20539;-73
2023/10/16 08:33:30;;;;;;;5.65;3.25;;;;;;;;;;5283134;28;20095;-76
2023/10/16 08:36:04;;;;;;;4.72;3.10;;;;;;;;;;5281699;28;20021;-76
2023/10/16 08:38:36;;;;;;;4.65;3.30;;;;;;;;;;5282977;28;20070;-77
2023/10/16 08:41:14;;;;;;;5.70;3.40;;;;;;;;;;5282902;28;20020;-77
2023/10/16 08:43:57;;;;;;;5.05;3.10;;;;;;;;;;5281575;28;20107;-76
2023/10/16 08:46:31;;;;;;;3.67;3.20;;;;;;;;;;5282839;28;20552;-76
2023/10/16 08:49:03;;;;;;;5.45;2.92;;;;;;;;;;5282571;28;20024;-76
2023/10/16 08:51:34;;;;;;;5.50;2.90;;;;;;;;;;5281856;28;20012;-77
2023/10/16 08:54:27;;;;;;;6.72;3.08;;;;;;;;;;5282570;28;20428;-76
2023/10/16 08:56:56;;;;;;;4.18;2.75;;;;;;;;;;5281711;28;20052;-73
2023/10/16 08:59:28;;;;;;;7.30;2.55;;;;;;;;;;5282783;28;20047;-73
2023/10/16 09:02:01;;;;;;;3.97;2.28;;;;;;;;;;5282600;28;20009;-76
2023/10/16 09:04:33;;;;;;;5.28;1.73;;;;;;;;;;5281640;28;20107;-78
2023/10/16 09:07:05;;;;;;;5.25;1.95;;;;;;;;;;5282628;28;20027;-79
2023/10/16 09:09:41;;;;;;;5.90;2.90;;;;;;;;;;5282522;28;20029;-78
2023/10/16 09:12:12;;;;;;;3.60;2.45;;;;;;;;;;5281624;28;20029;-78
2023/10/16 09:14:44;;;;;;;3.22;1.80;;;;;;;;;;5282408;28;20368;-79
2023/10/16 09:17:19;;;;;;;4.47;2.13;;;;;;;;;;5282469;28;20034;-80
2023/10/16 09:19:50;;;;;;;4.68;1.67;;;;;;;;;;5281383;28;20074;-79
2023/10/16 09:22:23;;;;;;;2.80;1.80;;;;;;;;;;5282569;28;20029;-80
2023/10/16 09:24:55;;;;;;;3.70;2.20;;;;;;;;;;5281795;28;20077;-81
2023/10/16 09:27:36;;;;;;;3.58;1.80;;;;;;;;;;5281269;28;20027;-81
2023/10/16 09:30:14;;;;;;;4.15;1.80;;;;;;;;;;5281574;28;20020;-80
2023/10/16 09:32:48;;;;;;;3.97;1.73;;;;;;;;;;5280994;28;20038;-80
2023/10/16 09:35:30;;;;;;;2.58;1.40;;;;;;;;;;5282330;28;20032;-81
2023/10/16 09:38:19;;;;;;;3.13;1.20;;;;;;;;;;5281698;28;20378;-80
2023/10/16 09:40:58;;;;;;;;;;;;;;;;;;5281390;28;20091;-80
2023/10/16 09:43:32;;;;;;;3.10;1.10;;;;;;;;;;5281788;28;19904;-79
2023/10/16 09:48:55;;;;;;;4.00;0.90;;;;;;;;;;5281903;28;20110;-79
2023/10/16 09:51:26;;;;;;;2.85;0.82;;;;;;;;;;5282644;28;20032;-79
2023/10/16 09:53:59;;;;;;;4.75;0.70;;;;;;;;;;5281621;28;20019;-79
2023/10/16 09:56:35;;;;;;;2.45;0.80;;;;;;;;;;5281758;28;20021;-80
2023/10/16 09:59:12;;;;;;;2.88;0.90;;;;;;;;;;5281840;28;20031;-76
2023/10/16 10:01:44;;;;;;;3.90;0.60;;;;;;;;;;5281576;28;20171;-83
2023/10/16 10:04:19;;;;;;;2.90;0.57;;;;;;;;;;5282033;28;20054;-80
2023/10/16 10:06:53;;;;;;;1.85;0.57;;;;;;;;;;5281237;28;20066;-80
2023/10/16 10:09:44;;;;;;;3.75;0.70;;;;;;;;;;5280749;28;20059;-81
2023/10/16 10:12:28;;;;;;;4.22;0.70;;;;;;;;;;5281306;28;20016;-82
2023/10/16 10:15:06;;;;;;;2.63;0.60;;;;;;;;;;5278214;28;20027;-83
2023/10/16 10:17:38;;;;;;;1.52;0.40;;;;;;;;;;5278433;28;20032;-81
2023/10/16 10:23:06;;;;;;;1.60;0.50;;;;;;;;;;5278561;28;20036;-81
2023/10/16 10:25:37;;;;;;;2.35;0.50;;;;;;;;;;5281717;28;20023;-79
2023/10/16 10:28:22;;;;;;;3.08;0.45;;;;;;;;;;5281665;28;20024;-78
2023/10/16 10:30:55;;;;;;;2.38;0.45;;;;;;;;;;5281431;28;20477;-79
2023/10/16 10:33:51;;;;;;;1.73;0.30;;;;;;;;;;5281464;28;20023;-80
2023/10/16 10:36:33;;;;;;;0.70;0.30;;;;;;;;;;5281094;28;20037;-81
2023/10/16 10:42:06;;;;;;;1.48;0.30;;;;;;;;;;5284038;28;20051;-82
2023/10/16 10:44:43;;;;;;;3.53;0.38;;;;;;;;;;5284518;28;20016;-81
2023/10/16 10:47:20;;;;;;;1.38;0.45;;;;;;;;;;5285123;28;20080;-82
2023/10/16 10:49:51;;;;;;;1.38;0.20;;;;;;;;;;5284266;28;20028;-81
2023/10/16 10:52:25;;;;;;;1.65;0.63;;;;;;;;;;5285641;28;20017;-80
2023/10/16 10:54:58;;;;;;;2.47;0.30;;;;;;;;;;5285063;28;20016;-82
2023/10/16 10:57:29;;;;;;;2.72;0.30;;;;;;;;;;5284253;28;20104;-82
2023/10/16 11:05:33;;;;;;;4.43;0.63;;;;;;;;;;5284522;28;20124;-81
2023/10/16 11:10:46;;;;;;;1.25;0.40;;;;;;;;;;5284289;28;20386;-79
2023/10/16 11:13:21;;;;;;;1.58;0.35;;;;;;;;;;5285713;28;20024;-81
2023/10/16 11:15:53;;;;;;;1.92;0.40;;;;;;;;;;5283833;28;20052;-75
2023/10/16 11:18:28;;;;;;;1.95;0.30;;;;;;;;;;5282883;28;20025;-81
2023/10/16 11:21:06;;;;;;;1.40;0.30;;;;;;;;;;5282702;28;20021;-80
2023/10/16 11:23:42;;;;;;;1.75;0.40;;;;;;;;;;5287264;28;20478;-80
2023/10/16 11:26:16;;;;;;;1.52;0.40;;;;;;;;;;5302949;28;20374;-80
2023/10/16 11:28:51;;;;;;;1.92;0.38;;;;;;;;;;5303394;28;20089;-81
2023/10/16 11:31:24;;;;;;;3.00;0.73;;;;;;;;;;5303758;28;20099;-81
2023/10/16 11:34:03;;;;;;;2.58;0.40;;;;;;;;;;5302685;28;20102;-81
2023/10/16 11:36:34;;;;;;;3.08;0.30;;;;;;;;;;5282826;28;20070;-81
2023/10/16 11:39:07;;;;;;;1.70;0.20;;;;;;;;;;5283822;28;20099;-82
2023/10/16 11:41:40;;;;;;;1.35;0.20;;;;;;;;;;5283801;28;20013;-81
2023/10/16 11:44:14;;;;;;;2.20;0.30;;;;;;;;;;5284006;28;20028;-82
2023/10/16 11:46:46;;;;;;;2.35;0.40;;;;;;;;;;5282834;28;20044;-82
2023/10/16 11:51:55;;;;;;;3.63;0.40;;;;;;;;;;5282091;28;20032;-81
2023/10/16 11:54:28;;;;;;;3.08;0.35;;;;;;;;;;5282704;28;20128;-81
2023/10/16 11:57:00;;;;;;;1.75;0.30;;;;;;;;;;5281844;28;20020;-81
2023/10/16 11:59:32;;;;;;;1.25;0.22;;;;;;;;;;5282980;28;20471;-81
2023/10/16 12:02:18;;;;;;;2.55;0.40;;;;;;;;;;5282775;28;20028;-83
2023/10/16 12:04:50;;;;;;;2.17;0.60;;;;;;;;;;5282176;28;20027;-80
2023/10/16 12:07:22;;;;;;;2.10;0.38;;;;;;;;;;5282472;28;20020;-82
2023/10/16 12:09:53;;;;;;;2.97;0.40;;;;;;;;;;5282948;28;20032;-74
2023/10/16 12:12:24;;;;;;;0.85;0.25;;;;;;;;;;5283838;28;20020;-73
2023/10/16 12:14:56;;;;;;;3.47;0.40;;;;;;;;;;5283129;28;20029;-78
2023/10/16 12:17:28;;;;;;;1.55;0.22;;;;;;;;;;5283595;28;20095;-78
2023/10/16 12:20:00;;;;;;;1.38;0.22;;;;;;;;;;5283634;28;20115;-81
2023/10/16 12:22:31;;;;;;;0.98;0.40;;;;;;;;;;5282659;28;20356;-82
2023/10/16 12:25:08;;;;;;;1.63;0.20;;;;;;;;;;5283408;28;20024;-82
2023/10/16 12:27:39;;;;;;;0.60;0.10;;;;;;;;;;5283340;28;20394;-82
2023/10/16 12:30:13;;;;;;;1.35;0.10;;;;;;;;;;5281199;28;20111;-81
2023/10/16 12:32:45;;;;;;;1.45;0.20;;;;;;;;;;5283216;28;20016;-77
2023/10/16 12:35:21;;;;;;;1.55;0.15;;;;;;;;;;5282736;28;20116;-80
2023/10/16 12:37:55;;;;;;;0.90;0.13;;;;;;;;;;5282987;28;20020;-80
2023/10/16 12:40:38;;;;;;;18.10;0.65;;;;;;;;;;5282128;28;20032;-80
2023/10/16 12:43:10;;;;;;;1.08;0.25;;;;;;;;;;5281624;28;20019;-80
2023/10/16 12:45:41;;;;;;;2.03;0.30;;;;;;;;;;5284964;28;20033;-80
2023/10/16 12:48:12;;;;;;;1.73;0.20;;;;;;;;;;5285077;28;20124;-81
2023/10/16 12:50:47;;;;;;;0.82;0.20;;;;;;;;;;5281984;28;21830;-81
2023/10/16 12:53:20;;;;;;;1.10;0.30;;;;;;;;;;5283139;28;20032;-81
2023/10/16 12:55:55;;;;;;;0.82;0.20;;;;;;;;;;5282638;28;20085;-81
2023/10/16 12:58:27;;;;;;;2.35;0.22;;;;;;;;;;5281741;28;20483;-81
2023/10/16 13:00:58;;;;;;;1.75;0.30;;;;;;;;;;5282988;28;20092;-82
2023/10/16 13:03:33;;;;;;;1.33;0.30;;;;;;;;;;5282021;28;20107;-82
2023/10/16 13:06:05;;;;;;;3.78;0.68;;;;;;;;;;5281918;28;20025;-80
2023/10/16 13:08:36;;;;;;;3.50;0.30;;;;;;;;;;5283195;28;20036;-80
2023/10/16 13:11:08;;;;;;;2.13;0.47;;;;;;;;;;5281764;28;20043;-80
2023/10/16 13:13:41;;;;;;;2.13;0.35;;;;;;;;;;5281955;28;20362;-79
2023/10/16 13:16:12;;;;;;;1.65;0.25;;;;;;;;;;5282597;28;20366;-80
2023/10/16 13:18:43;;;;;;;2.10;0.30;;;;;;;;;;5281204;28;20024;-80
2023/10/16 13:21:14;;;;;;;2.72;0.40;;;;;;;;;;5282429;28;20371;-80
2023/10/16 13:23:46;;;;;;;0.82;0.45;;;;;;;;;;5282024;28;20032;-80
2023/10/16 13:26:17;;;;;;;2.25;0.30;;;;;;;;;;5281411;28;20013;-78
2023/10/16 13:28:48;;;;;;;2.10;0.35;;;;;;;;;;5281566;28;20036;-78
2023/10/16 13:31:19;;;;;;;1.13;0.40;;;;;;;;;;5281339;28;20097;-80
2023/10/16 13:33:51;;;;;;;3.60;0.37;;;;;;;;;;5281900;28;20027;-80
2023/10/16 13:36:22;;;;;;;1.83;0.35;;;;;;;;;;5282471;28;20262;-79
2023/10/16 13:38:53;;;;;;;3.17;0.60;;;;;;;;;;5281140;28;20028;-79
2023/10/16 13:41:27;;;;;;;3.30;0.88;;;;;;;;;;5282145;28;20334;-80
2023/10/16 13:43:59;;;;;;;3.15;0.40;;;;;;;;;;5281962;28;20032;-79
2023/10/16 13:46:30;;;;;;;3.15;0.40;;;;;;;;;;5282268;28;20036;-77
2023/10/16 13:49:01;;;;;;;5.03;0.60;;;;;;;;;;5281850;28;20032;-78
2023/10/16 13:51:35;;;;;;;4.43;0.98;;;;;;;;;;5281612;28;20020;-77
2023/10/16 13:54:11;;;;;;;2.60;0.40;;;;;;;;;;5280709;28;20109;-81
2023/10/16 13:56:46;;;;;;;1.58;0.40;;;;;;;;;;5272142;28;20017;-79
2023/10/16 13:59:20;;;;;;;1.95;0.30;;;;;;;;;;5270560;28;20407;-79
2023/10/16 14:01:51;;;;;;;2.72;0.30;;;;;;;;;;5272377;28;20012;-80
2023/10/16 14:04:25;;;;;;;3.65;0.30;;;;;;;;;;5281575;28;20024;-79
2023/10/16 14:06:56;;;;;;;2.85;0.30;;;;;;;;;;5280956;28;20020;-80
2023/10/16 14:09:28;;;;;;;1.30;0.30;;;;;;;;;;5281261;28;20028;-80
2023/10/16 14:11:59;;;;;;;2.13;0.30;;;;;;;;;;5281345;28;20463;-80
2023/10/16 14:14:33;;;;;;;1.65;0.40;;;;;;;;;;5280791;28;20060;-81
2023/10/16 14:17:04;;;;;;;1.73;0.30;;;;;;;;;;5284315;28;20128;-80
2023/10/16 14:19:35;;;;;;;2.17;0.40;;;;;;;;;;5286136;28;20095;-80
2023/10/16 14:22:06;;;;;;;2.10;0.30;;;;;;;;;;5285086;28;20040;-80
2023/10/16 14:24:37;;;;;;;1.58;0.30;;;;;;;;;;5285811;28;20267;-80
2023/10/16 14:27:09;;;;;;;1.55;0.30;;;;;;;;;;5285065;28;20024;-79
2023/10/16 14:29:45;;;;;;;1.58;0.30;;;;;;;;;;5284562;28;20028;-78
2023/10/16 14:32:16;;;;;;;1.80;0.30;;;;;;;;;;5286001;28;20474;-79
2023/10/16 14:34:47;;;;;;;1.97;0.50;;;;;;;;;;5284245;28;20059;-79
2023/10/16 14:37:18;;;;;;;2.55;0.30;;;;;;;;;;5285703;28;20357;-79
2023/10/16 14:39:51;;;;;;;2.85;0.40;;;;;;;;;;5284836;28;20016;-79
2023/10/16 14:42:22;;;;;;;2.17;0.32;;;;;;;;;;5284805;28;20096;-79
2023/10/16 14:44:54;;;;;;;2.53;0.30;;;;;;;;;;5284929;28;20104;-79
2023/10/16 14:47:25;;;;;;;1.27;0.30;;;;;;;;;;5284927;28;20478;-79
2023/10/16 14:50:02;;;;;;;0.97;0.30;;;;;;;;;;5284531;28;20024;-79
2023/10/16 14:52:35;;;;;;;3.50;0.40;;;;;;;;;;5284994;28;20266;-79
2023/10/16 14:55:07;;;;;;;1.73;0.30;;;;;;;;;;5284844;28;20028;-79
2023/10/16 14:57:39;;;;;;;1.33;0.40;;;;;;;;;;5284213;28;20470;-79
2023/10/16 15:00:12;;;;;;;1.20;0.40;;;;;;;;;;5284932;28;20021;-79
2023/10/16 15:02:44;;;;;;;1.23;0.30;;;;;;;;;;5284163;28;20463;-80
2023/10/16 15:05:15;;;;;;;1.70;0.30;;;;;;;;;;5284841;28;20039;-80
2023/10/16 15:07:47;;;;;;;1.27;0.47;;;;;;;;;;5284810;28;20016;-80
2023/10/16 15:10:18;;;;;;;1.30;0.40;;;;;;;;;;5284519;28;20035;-79
2023/10/16 15:12:50;;;;;;;2.22;0.38;;;;;;;;;;5284047;28;20374;-79
2023/10/16 15:15:21;;;;;;;1.88;0.45;;;;;;;;;;5285048;28;20019;-79
2023/10/16 15:17:54;;;;;;;3.28;0.47;;;;;;;;;;5283814;28;20096;-79
2023/10/16 15:20:26;;;;;;;2.28;0.40;;;;;;;;;;5284701;28;20451;-80
2023/10/16 15:22:57;;;;;;;1.30;0.35;;;;;;;;;;5283630;28;20138;-79
2023/10/16 15:25:29;;;;;;;1.88;0.40;;;;;;;;;;5282992;28;20382;-79
2023/10/16 15:28:01;;;;;;;1.20;0.35;;;;;;;;;;5283179;28;20071;-79
2023/10/16 15:30:35;;;;;;;1.73;0.50;;;;;;;;;;5284847;28;20459;-79
2023/10/16 15:33:07;;;;;;;1.00;0.50;;;;;;;;;;5283954;28;20021;-79
2023/10/16 15:35:38;;;;;;;2.08;0.52;;;;;;;;;;5284655;28;20040;-80
2023/10/16 15:38:12;;;;;;;2.38;0.50;;;;;;;;;;5283777;28;20112;-79
2023/10/16 15:40:45;;;;;;;2.42;0.45;;;;;;;;;;5284646;28;20024;-79
2023/10/16 15:43:16;;;;;;;1.08;0.38;;;;;;;;;;5284697;28;20100;-79
2023/10/16 15:45:49;;;;;;;1.60;0.40;;;;;;;;;;5283343;28;20612;-79
2023/10/16 15:48:20;;;;;;;1.30;0.50;;;;;;;;;;5284516;28;20066;-79
2023/10/16 15:50:52;;;;;;;2.37;0.50;;;;;;;;;;5283731;28;20081;-80
2023/10/16 15:53:25;;;;;;;1.90;0.45;;;;;;;;;;5283496;28;20737;-80
2023/10/16 15:55:56;;;;;;;1.77;0.40;;;;;;;;;;5284334;28;20414;-79
2023/10/16 15:58:27;;;;;;;2.53;0.40;;;;;;;;;;5284123;28;20025;-80
2023/10/16 16:00:59;;;;;;;2.38;0.47;;;;;;;;;;5280282;28;20036;-80
2023/10/16 16:03:33;;;;;;;1.35;0.40;;;;;;;;;;5283741;28;20012;-81
2023/10/16 16:06:08;;;;;;;3.55;0.60;;;;;;;;;;5281560;28;20025;-79
2023/10/16 16:08:40;;;;;;;1.20;0.40;;;;;;;;;;5267359;28;20041;-80
2023/10/16 16:11:13;;;;;;;2.30;0.50;;;;;;;;;;5261339;28;20728;-80
2023/10/16 16:13:45;;;;;;;2.13;0.40;;;;;;;;;;5259767;28;20021;-81
2023/10/16 16:16:20;;;;;;;1.60;0.50;;;;;;;;;;5263148;28;20035;-82
2023/10/16 16:18:52;;;;;;;2.47;0.50;;;;;;;;;;5262738;28;20036;-81
2023/10/16 16:21:23;;;;;;;2.28;0.50;;;;;;;;;;5262611;28;20025;-82
2023/10/16 16:23:55;;;;;;;2.78;0.50;;;;;;;;;;5262775;28;20020;-81
2023/10/16 16:26:26;;;;;;;1.50;0.50;;;;;;;;;;5262710;28;20013;-82
2023/10/16 16:28:57;;;;;;;1.05;0.30;;;;;;;;;;5261938;28;20033;-81
2023/10/16 16:31:28;;;;;;;1.95;0.60;;;;;;;;;;5261891;28;20020;-80
2023/10/16 16:34:00;;;;;;;2.35;0.60;;;;;;;;;;5262626;28;20526;-81
2023/10/16 16:36:35;;;;;;;2.17;0.50;;;;;;;;;;5261329;28;20376;-81
2023/10/16 16:39:12;;;;;;;2.38;0.50;;;;;;;;;;5261901;28;20009;-82
2023/10/16 16:41:44;;;;;;;0.88;0.40;;;;;;;;;;5261648;28;20108;-79
2023/10/16 16:44:17;;;;;;;1.60;0.50;;;;;;;;;;5262620;28;20104;-80
2023/10/16 16:46:48;;;;;;;3.72;0.50;;;;;;;;;;5261907;28;20041;-82
2023/10/16 16:49:19;;;;;;;1.65;0.50;;;;;;;;;;5261566;28;20048;-81
2023/10/16 16:51:51;;;;;;;1.60;0.52;;;;;;;;;;5261527;28;20021;-81
2023/10/16 16:54:22;;;;;;;2.38;0.90;;;;;;;;;;5262509;28;20513;-81
2023/10/16 16:56:53;;;;;;;2.63;0.60;;;;;;;;;;5260809;28;20493;-79
2023/10/16 16:59:26;;;;;;;1.85;0.70;;;;;;;;;;5261947;28;20071;-81
2023/10/16 17:01:57;;;;;;;2.72;0.70;;;;;;;;;;5262221;28;20442;-81
2023/10/16 17:04:29;;;;;;;3.25;0.80;;;;;;;;;;5261047;28;20088;-81
2023/10/16 17:07:04;;;;;;;3.72;0.70;;;;;;;;;;5261711;28;20100;-81
2023/10/16 17:09:35;;;;;;;2.17;0.70;;;;;;;;;;5260639;28;20454;-81
2023/10/16 17:12:08;;;;;;;2.63;0.70;;;;;;;;;;5261805;28;20017;-80